createdAt,value
2019-01-18T00:00:33.070Z,100399.53
2019-01-18T00:03:00.022Z,100411.13
2019-01-18T00:05:27.005Z,100415.42
2019-01-18T00:07:53.980Z,100419.34
2019-01-18T00:10:20.970Z,100423.99
2019-01-18T00:12:47.888Z,100433.47
2019-01-18T00:15:14.865Z,100434.77
2019-01-18T00:17:41.822Z,100437.79
2019-01-18T00:20:09.075Z,100452.34
2019-01-18T00:22:36.007Z,100451.95
2019-01-18T00:25:03.702Z,100463.10
2019-01-18T00:27:30.662Z,100457.97
2019-01-18T00:29:57.611Z,100458.47
2019-01-18T00:32:24.559Z,100470.88
2019-01-18T00:34:51.574Z,100471.77
2019-01-18T00:37:18.501Z,100476.95
2019-01-18T00:39:45.567Z,100476.49
2019-01-18T00:42:12.481Z,100488.59
2019-01-18T00:44:39.448Z,100492.36
2019-01-18T00:47:06.379Z,100498.45
2019-01-18T00:49:33.432Z,100505.23
2019-01-18T00:52:00.387Z,100498.30
2019-01-18T00:54:27.324Z,100514.65
2019-01-18T00:56:54.265Z,100508.59
2019-01-18T00:59:21.210Z,100522.33
2019-01-18T01:01:48.181Z,100526.33
2019-01-18T01:04:15.356Z,100529.31
2019-01-18T01:06:42.345Z,100541.69
2019-01-18T01:09:09.275Z,100538.68
2019-01-18T01:11:36.226Z,100553.66
2019-01-18T01:14:03.345Z,100557.61
2019-01-18T01:16:30.307Z,100559.33
2019-01-18T01:18:57.250Z,100557.06
2019-01-18T01:21:24.199Z,100557.52
2019-01-18T01:23:51.208Z,100559.27
2019-01-18T01:26:18.174Z,100560.50
2019-01-18T01:28:45.246Z,100561.66
2019-01-18T01:31:12.202Z,100572.92
2019-01-18T01:33:39.118Z,100581.47
2019-01-18T01:36:06.078Z,100587.22
2019-01-18T01:38:33.008Z,100597.83
2019-01-18T01:40:59.974Z,100604.27
2019-01-18T01:43:26.926Z,100610.71
2019-01-18T01:45:54.052Z,100615.76
2019-01-18T01:48:20.979Z,100629.53
2019-01-18T01:50:48.006Z,100642.02
2019-01-18T01:53:14.921Z,100642.38
2019-01-18T01:55:41.971Z,100656.20
2019-01-18T01:58:08.935Z,100654.05
2019-01-18T02:00:35.883Z,100657.87
2019-01-18T02:03:02.813Z,100666.50
2019-01-18T02:05:29.812Z,100666.61
2019-01-18T02:07:56.755Z,100667.44
2019-01-18T02:10:23.707Z,100667.91
2019-01-18T02:12:50.668Z,100668.22
2019-01-18T02:15:19.698Z,100667.00
2019-01-18T02:17:46.691Z,100672.44
2019-01-18T02:20:15.632Z,100685.75
2019-01-18T02:22:42.698Z,100691.76
2019-01-18T02:25:10.637Z,100700.39
2019-01-18T02:27:38.241Z,100705.72
2019-01-18T02:30:07.848Z,100710.01
2019-01-18T02:32:34.899Z,100719.63
2019-01-18T02:35:01.847Z,100723.79
2019-01-18T02:37:28.781Z,100710.01
2019-01-18T02:39:55.697Z,100714.30
2019-01-18T02:42:22.771Z,100717.09
2019-01-18T02:44:49.759Z,100726.48
2019-01-18T02:47:16.725Z,100722.80
2019-01-18T02:49:43.641Z,100730.20
2019-01-18T02:52:10.618Z,100727.67
2019-01-18T02:54:37.549Z,100731.16
2019-01-18T02:57:04.647Z,100735.63
2019-01-18T02:59:31.588Z,100737.77
2019-01-18T03:01:58.544Z,100742.50
2019-01-18T03:04:28.580Z,100748.93
2019-01-18T03:06:55.553Z,100749.89
2019-01-18T03:09:22.503Z,100755.56
2019-01-18T03:11:49.431Z,100763.94
2019-01-18T03:14:16.376Z,100762.97
2019-01-18T03:16:43.299Z,100761.64
2019-01-18T03:19:10.368Z,100774.60
2019-01-18T03:21:37.358Z,100774.72
2019-01-18T03:24:04.443Z,100777.56
2019-01-18T03:26:31.362Z,100776.81
2019-01-18T03:28:58.324Z,100770.15
2019-01-18T03:31:25.259Z,100773.31
2019-01-18T03:33:52.219Z,100780.07
2019-01-18T03:36:19.148Z,100790.00
2019-01-18T03:38:46.133Z,100789.84
2019-01-18T03:41:13.146Z,100795.03
2019-01-18T03:43:40.090Z,100798.46
2019-01-18T03:46:07.023Z,100809.14
2019-01-18T03:48:33.991Z,100808.28
2019-01-18T03:51:00.912Z,100809.24
2019-01-18T03:53:27.934Z,100818.84
2019-01-18T03:55:54.894Z,100835.03
2019-01-18T03:58:21.841Z,100833.00
2019-01-18T04:00:48.766Z,100831.50
2019-01-18T04:03:15.716Z,100832.67
2019-01-18T04:05:42.690Z,100829.00
2019-01-18T04:08:09.679Z,100835.05
2019-01-18T04:10:36.599Z,100843.56
2019-01-18T04:13:03.656Z,100850.02
2019-01-18T04:15:30.597Z,100848.36
2019-01-18T04:17:57.629Z,100850.37
2019-01-18T04:20:24.625Z,100847.86
2019-01-18T04:22:51.657Z,100860.05
2019-01-18T04:25:23.799Z,100857.77
2019-01-18T04:27:50.726Z,100862.62
2019-01-18T04:30:19.358Z,100863.23
2019-01-18T04:32:46.289Z,100867.95
2019-01-18T04:35:13.455Z,100870.41
2019-01-18T04:37:40.374Z,100867.83
2019-01-18T04:40:11.178Z,100869.41
2019-01-18T04:42:38.200Z,100872.72
2019-01-18T04:45:05.483Z,100875.84
2019-01-18T04:47:32.406Z,100878.34
2019-01-18T04:49:59.376Z,100886.23
2019-01-18T04:52:26.308Z,100889.96
2019-01-18T04:54:53.267Z,100892.88
2019-01-18T04:57:20.237Z,100892.08
2019-01-18T04:59:47.131Z,100893.45
2019-01-18T05:02:14.090Z,100896.73
2019-01-18T05:04:41.093Z,100901.95
2019-01-18T05:07:08.065Z,100905.56
2019-01-18T05:09:35.045Z,100910.70
2019-01-18T05:12:02.046Z,100913.67
2019-01-18T05:14:28.936Z,100919.58
2019-01-18T05:16:55.929Z,100917.00
2019-01-18T05:19:22.897Z,100915.60
2019-01-18T05:21:49.845Z,100923.44
2019-01-18T05:24:16.768Z,100922.16
2019-01-18T05:26:43.726Z,100927.42
2019-01-18T05:29:10.683Z,100936.00
2019-01-18T05:31:37.660Z,100935.28
2019-01-18T05:34:04.646Z,100945.13
2019-01-18T05:36:31.607Z,100943.52
2019-01-18T05:38:58.541Z,100950.64
2019-01-18T05:41:25.477Z,100951.49
2019-01-18T05:43:52.472Z,100964.20
2019-01-18T05:46:19.480Z,100966.72
2019-01-18T05:48:46.439Z,100968.42
2019-01-18T05:51:13.412Z,100975.84
2019-01-18T05:53:40.543Z,100970.12
2019-01-18T05:56:07.578Z,100977.75
2019-01-18T05:58:34.617Z,100982.45
2019-01-18T06:01:03.924Z,100984.41
2019-01-18T06:03:31.064Z,100992.28
2019-01-18T06:05:58.025Z,101003.34
2019-01-18T06:08:25.021Z,101001.72
2019-01-18T06:10:52.019Z,101003.50
2019-01-18T06:13:18.955Z,101011.63
2019-01-18T06:15:45.970Z,101014.83
2019-01-18T06:18:12.966Z,101024.25
2019-01-18T06:20:39.945Z,101018.27
2019-01-18T06:23:06.944Z,101028.16
2019-01-18T06:25:33.946Z,101032.89
2019-01-18T06:28:00.946Z,101033.81
2019-01-18T06:30:27.923Z,101035.73
2019-01-18T06:32:54.962Z,101029.56
2019-01-18T06:35:21.945Z,101034.75
2019-01-18T06:37:48.982Z,101030.06
2019-01-18T06:40:16.054Z,101033.52
2019-01-18T06:42:43.026Z,101038.97
2019-01-18T06:45:11.721Z,101031.10
2019-01-18T06:47:38.740Z,101032.78
2019-01-18T06:50:08.858Z,101041.02
2019-01-18T06:52:35.802Z,101043.44
2019-01-18T06:55:03.202Z,101047.34
2019-01-18T06:57:30.229Z,101057.62
2019-01-18T06:59:57.165Z,101066.69
2019-01-18T07:02:24.157Z,101068.47
2019-01-18T07:04:51.141Z,101074.39
2019-01-18T07:07:18.166Z,101074.50
2019-01-18T07:09:45.298Z,101076.01
2019-01-18T07:12:12.308Z,101082.90
2019-01-18T07:14:39.268Z,101094.52
2019-01-18T07:17:06.219Z,101092.78
2019-01-18T07:19:33.146Z,101099.34
2019-01-18T07:22:00.104Z,101098.05
2019-01-18T07:24:27.034Z,101101.97
2019-01-18T07:26:54.027Z,101111.91
2019-01-18T07:29:20.973Z,101118.69
2019-01-18T07:31:47.949Z,101116.27
2019-01-18T07:34:24.286Z,101119.80
2019-01-18T07:36:51.470Z,101120.56
2019-01-18T07:39:22.348Z,101126.14
2019-01-18T07:41:47.236Z,101125.66
2019-01-18T07:44:14.213Z,101128.95
2019-01-18T07:46:41.200Z,101131.36
2019-01-18T07:49:08.145Z,101132.91
2019-01-18T07:51:35.124Z,101131.88
2019-01-18T07:54:02.057Z,101136.97
2019-01-18T07:56:29.003Z,101143.89
2019-01-18T07:58:55.952Z,101150.04
2019-01-18T08:01:22.925Z,101152.45
2019-01-18T08:03:49.917Z,101157.44
2019-01-18T08:06:16.932Z,101158.35
2019-01-18T08:08:43.894Z,101168.38
2019-01-18T08:11:10.874Z,101175.91
2019-01-18T08:13:37.776Z,101178.73
2019-01-18T08:16:04.692Z,101181.78
2019-01-18T08:18:31.687Z,101188.81
2019-01-18T08:20:58.649Z,101186.94
2019-01-18T08:23:25.613Z,101189.36
2019-01-18T08:25:52.533Z,101186.71
2019-01-18T08:28:19.491Z,101189.28
2019-01-18T08:30:46.469Z,101190.23
2019-01-18T08:33:13.423Z,101186.44
2019-01-18T08:35:40.348Z,101189.87
2019-01-18T08:38:07.298Z,101197.94
2019-01-18T08:40:39.223Z,101199.57
2019-01-18T08:43:11.047Z,101205.15
2019-01-18T08:45:40.718Z,101200.94
2019-01-18T08:48:07.806Z,101206.22
2019-01-18T08:50:34.740Z,101204.47
2019-01-18T08:53:02.684Z,101206.67
2019-01-18T08:55:29.638Z,101210.88
2019-01-18T08:57:56.649Z,101214.31
2019-01-18T09:00:24.629Z,101202.89
2019-01-18T09:02:51.608Z,101210.73
2019-01-18T09:05:21.123Z,101214.15
2019-01-18T09:07:48.081Z,101224.00
2019-01-18T09:10:16.604Z,101224.51
2019-01-18T09:12:43.883Z,101220.25
2019-01-18T09:15:11.108Z,101225.53
2019-01-18T09:17:38.388Z,101232.69
2019-01-18T09:20:26.167Z,101228.97
2019-01-18T09:22:53.148Z,101222.41
2019-01-18T09:25:20.426Z,101233.95
2019-01-18T09:27:47.443Z,101232.41
2019-01-18T09:30:16.569Z,101233.26
2019-01-18T09:32:43.521Z,101235.04
2019-01-18T09:35:11.382Z,101239.34
2019-01-18T09:37:38.454Z,101238.19
2019-01-18T09:40:08.758Z,101246.63
2019-01-18T09:42:35.698Z,101255.41
2019-01-18T09:45:03.548Z,101252.86
2019-01-18T09:47:30.492Z,101251.25
2019-01-18T09:49:57.439Z,101252.62
2019-01-18T09:52:24.441Z,101257.41
2019-01-18T09:54:51.451Z,101264.66
2019-01-18T09:57:20.171Z,101262.59
2019-01-18T09:59:47.335Z,101257.50
2019-01-18T10:02:14.295Z,101261.93
2019-01-18T10:04:41.285Z,101270.42
2019-01-18T10:07:08.205Z,101264.52
2019-01-18T10:09:35.202Z,101264.24
2019-01-18T10:12:03.189Z,101268.89
2019-01-18T10:14:30.160Z,101270.82
2019-01-18T10:16:57.073Z,101270.69
2019-01-18T10:19:24.055Z,101268.03
2019-01-18T10:21:50.969Z,101274.77
2019-01-18T10:24:17.926Z,101270.19
2019-01-18T10:26:44.867Z,101274.05
2019-01-18T10:29:11.835Z,101272.59
2019-01-18T10:31:38.753Z,101265.09
2019-01-18T10:34:05.718Z,101266.56
2019-01-18T10:36:32.751Z,101268.30
2019-01-18T10:38:59.757Z,101266.20
2019-01-18T10:41:26.656Z,101270.57
2019-01-18T10:43:53.788Z,101263.48
2019-01-18T10:46:20.709Z,101267.00
2019-01-18T10:48:47.655Z,101263.83
2019-01-18T10:51:14.662Z,101269.81
2019-01-18T10:53:41.737Z,101270.84
2019-01-18T10:56:08.773Z,101263.94
2019-01-18T10:58:35.767Z,101269.38
2019-01-18T11:01:03.230Z,101256.20
2019-01-18T11:03:30.424Z,101260.08
2019-01-18T11:05:57.398Z,101252.34
2019-01-18T11:08:24.391Z,101255.13
2019-01-18T11:10:51.630Z,101254.41
2019-01-18T11:13:18.631Z,101260.22
2019-01-18T11:15:45.618Z,101252.41
2019-01-18T11:18:12.864Z,101255.80
2019-01-18T11:20:44.331Z,101260.02
2019-01-18T11:23:11.529Z,101253.94
2019-01-18T11:25:38.541Z,101250.55
2019-01-18T11:28:06.773Z,101255.14
2019-01-18T11:30:35.834Z,101259.40
2019-01-18T11:33:02.968Z,101257.97
2019-01-18T11:35:29.950Z,101258.35
2019-01-18T11:37:56.898Z,101259.83
2019-01-18T11:40:23.914Z,101215.77
2019-01-18T11:42:51.068Z,101249.88
2019-01-18T11:45:18.061Z,101251.34
2019-01-18T11:47:45.027Z,101250.73
2019-01-18T11:50:14.500Z,101249.88
2019-01-18T11:52:41.407Z,101252.84
2019-01-18T11:55:08.403Z,101253.79
2019-01-18T11:57:35.410Z,101259.02
2019-01-18T12:00:04.419Z,101261.20
2019-01-18T12:02:31.387Z,101263.19
2019-01-18T12:04:58.680Z,101260.41
2019-01-18T12:07:25.678Z,101255.86
2019-01-18T12:09:52.611Z,101254.67
2019-01-18T12:12:19.810Z,101251.45
2019-01-18T12:14:46.724Z,101250.33
2019-01-18T12:17:13.774Z,101261.50
2019-01-18T12:19:40.710Z,101251.88
2019-01-18T12:22:07.662Z,101257.26
2019-01-18T12:24:34.614Z,101259.27
2019-01-18T12:27:01.593Z,101254.59
2019-01-18T12:29:28.526Z,101258.52
2019-01-18T12:31:55.516Z,101250.78
2019-01-18T12:34:22.637Z,101251.57
2019-01-18T12:36:49.584Z,101248.74
2019-01-18T12:39:16.496Z,101250.16
2019-01-18T12:41:43.466Z,101256.56
2019-01-18T12:44:10.406Z,101252.77
2019-01-18T12:46:37.371Z,101249.78
2019-01-18T12:49:04.370Z,101253.47
2019-01-18T12:51:31.336Z,101246.87
2019-01-18T12:53:58.290Z,101253.37
2019-01-18T12:56:25.250Z,101254.16
2019-01-18T12:58:56.471Z,101248.61
2019-01-18T13:01:21.045Z,101252.09
2019-01-18T13:03:47.991Z,101249.73
2019-01-18T13:06:14.942Z,101250.90
2019-01-18T13:08:41.924Z,101247.39
2019-01-18T13:11:08.868Z,101244.66
2019-01-18T13:13:35.839Z,101242.11
2019-01-18T13:16:44.060Z,101246.59
2019-01-18T13:19:13.856Z,101248.26
2019-01-18T13:21:40.991Z,101238.70
2019-01-18T13:24:07.970Z,101245.05
2019-01-18T13:26:35.020Z,101236.41
2019-01-18T13:29:01.966Z,101239.59
2019-01-18T13:31:28.915Z,101239.16
2019-01-18T13:33:55.851Z,101236.56
2019-01-18T13:36:22.915Z,101240.48
2019-01-18T13:38:49.951Z,101243.02
2019-01-18T13:41:16.961Z,101240.34
2019-01-18T13:43:43.914Z,101239.12
2019-01-18T13:46:10.851Z,101239.59
2019-01-18T13:48:37.806Z,101241.28
2019-01-18T13:51:04.765Z,101236.73
2019-01-18T13:53:31.971Z,101239.22
2019-01-18T13:55:58.924Z,101240.81
2019-01-18T13:58:25.933Z,101240.72
2019-01-18T14:00:52.871Z,101247.31
2019-01-18T14:03:19.855Z,101249.00
2019-01-18T14:05:47.075Z,101244.55
2019-01-18T14:08:14.274Z,101246.11
2019-01-18T14:10:41.196Z,101254.23
2019-01-18T14:13:08.214Z,101249.03
2019-01-18T14:15:35.222Z,101245.81
2019-01-18T14:18:02.177Z,101244.14
2019-01-18T14:20:29.220Z,101239.73
2019-01-18T14:22:56.135Z,101244.55
2019-01-18T14:25:23.054Z,101244.81
2019-01-18T14:27:50.238Z,101240.47
2019-01-18T14:30:19.601Z,101240.53
2019-01-18T14:32:55.404Z,101243.52
2019-01-18T14:35:19.400Z,101252.12
2019-01-18T14:37:46.585Z,101246.41
2019-01-18T14:40:14.330Z,101252.84
2019-01-18T14:42:41.376Z,101248.52
2019-01-18T14:45:13.995Z,101244.64
2019-01-18T14:47:41.080Z,101250.22
2019-01-18T14:50:12.519Z,101250.10
2019-01-18T14:52:39.631Z,101254.27
2019-01-18T14:55:07.487Z,101249.95
2019-01-18T14:57:34.437Z,101253.39
2019-01-18T15:00:01.403Z,101263.63
2019-01-18T15:02:28.332Z,101259.19
2019-01-18T15:04:55.311Z,101262.59
2019-01-18T15:07:22.257Z,101260.27
2019-01-18T15:09:49.365Z,101260.39
2019-01-18T15:12:16.309Z,101261.59
2019-01-18T15:14:43.308Z,101263.61
2019-01-18T15:17:10.433Z,101271.27
2019-01-18T15:19:37.405Z,101261.70
2019-01-18T15:22:04.409Z,101271.84
2019-01-18T15:24:31.349Z,101270.07
2019-01-18T15:26:58.278Z,101270.75
2019-01-18T15:29:25.222Z,101275.82
2019-01-18T15:31:52.119Z,101273.47
2019-01-18T15:34:19.081Z,101266.05
2019-01-18T15:36:46.041Z,101273.84
2019-01-18T15:39:13.791Z,101272.06
2019-01-18T15:41:40.725Z,101274.44
2019-01-18T15:44:07.694Z,101268.37
2019-01-18T15:46:34.612Z,101274.28
2019-01-18T15:49:01.555Z,101273.41
2019-01-18T15:51:28.494Z,101273.93
2019-01-18T15:53:55.438Z,101273.86
2019-01-18T15:56:22.495Z,101275.05
2019-01-18T15:58:49.536Z,101278.41
2019-01-18T16:01:16.454Z,101276.04
2019-01-18T16:03:43.453Z,101272.03
2019-01-18T16:06:10.375Z,101281.80
2019-01-18T16:08:37.304Z,101275.23
2019-01-18T16:11:04.290Z,101279.69
2019-01-18T16:13:31.281Z,101281.27
2019-01-18T16:16:11.648Z,101282.86
2019-01-18T16:18:38.586Z,101279.84
2019-01-18T16:21:05.603Z,101284.44
2019-01-18T16:23:32.527Z,101284.72
2019-01-18T16:25:59.524Z,101287.66
2019-01-18T16:28:26.453Z,101279.56
2019-01-18T16:30:53.403Z,101279.41
2019-01-18T16:33:23.518Z,101288.43
2019-01-18T16:35:49.929Z,101282.66
2019-01-18T16:38:16.871Z,101288.22
2019-01-18T16:40:43.822Z,101281.34
2019-01-18T16:43:14.577Z,101281.92
2019-01-18T16:45:41.533Z,101283.07
2019-01-18T16:48:08.468Z,101282.48
2019-01-18T16:50:35.548Z,101294.89
2019-01-18T16:53:02.591Z,101285.44
2019-01-18T16:55:29.574Z,101289.98
2019-01-18T16:57:56.540Z,101285.16
2019-01-18T17:00:29.586Z,101287.85
2019-01-18T17:02:56.502Z,101287.87
2019-01-18T17:05:23.517Z,101285.76
2019-01-18T17:07:50.483Z,101286.55
2019-01-18T17:10:17.552Z,101288.31
2019-01-18T17:12:44.594Z,101281.40
2019-01-18T17:15:11.917Z,101284.05
2019-01-18T17:17:38.843Z,101289.03
2019-01-18T17:20:19.104Z,101292.39
2019-01-18T17:22:46.041Z,101287.95
2019-01-18T17:25:13.068Z,101285.88
2019-01-18T17:27:40.075Z,101292.23
2019-01-18T17:30:09.994Z,101286.52
2019-01-18T17:32:37.136Z,101287.83
2019-01-18T17:35:06.869Z,101287.20
2019-01-18T17:37:37.726Z,101287.36
2019-01-18T17:40:31.305Z,101285.75
2019-01-18T17:43:33.488Z,101287.87
2019-01-18T17:46:27.037Z,101280.87
2019-01-18T17:49:26.328Z,101285.59
2019-01-18T17:52:34.126Z,101284.63
2019-01-18T17:55:51.928Z,101283.42
2019-01-18T17:59:09.749Z,101286.75
2019-01-18T18:02:34.273Z,101289.25
2019-01-18T18:05:58.716Z,101290.27
2019-01-18T18:09:13.506Z,101288.00
2019-01-18T18:12:13.649Z,101294.64
2019-01-18T18:15:22.253Z,101296.17
2019-01-18T18:18:28.433Z,101294.89
2019-01-18T18:21:35.995Z,101293.77
2019-01-18T18:24:34.085Z,101296.20
2019-01-18T18:27:49.224Z,101294.24
2019-01-18T18:31:00.760Z,101296.20
2019-01-18T18:34:21.162Z,101294.13
2019-01-18T18:37:42.041Z,101292.20
2019-01-18T18:40:27.100Z,101297.91
2019-01-18T18:43:22.283Z,101302.54
2019-01-18T18:46:05.623Z,101294.30
2019-01-18T18:49:02.209Z,101301.98
2019-01-18T18:51:54.512Z,101299.16
2019-01-18T18:55:06.102Z,101298.57
2019-01-18T18:58:02.143Z,101299.02
2019-01-18T19:01:14.457Z,101298.63
2019-01-18T19:04:10.462Z,101301.72
2019-01-18T19:07:05.984Z,101298.81
2019-01-18T19:10:10.650Z,101297.64
2019-01-18T19:13:14.048Z,101300.16
2019-01-18T19:16:11.511Z,101295.02
2019-01-18T19:19:04.173Z,101296.64
2019-01-18T19:22:25.246Z,101295.73
2019-01-18T19:25:30.502Z,101291.32
2019-01-18T19:28:41.157Z,101289.95
2019-01-18T19:32:01.457Z,101288.18
2019-01-18T19:35:10.282Z,101287.29
2019-01-18T19:37:59.643Z,101287.64
2019-01-18T19:40:32.320Z,101293.63
2019-01-18T19:43:45.174Z,101289.17
2019-01-18T19:46:45.720Z,101290.78
2019-01-18T19:49:41.483Z,101297.20
2019-01-18T19:52:58.961Z,101299.05
2019-01-18T19:56:22.933Z,101302.25
2019-01-18T19:59:46.408Z,101301.92
2019-01-18T20:02:44.781Z,101298.84
2019-01-18T20:06:02.566Z,101303.97
2019-01-18T20:09:05.813Z,101297.14
2019-01-18T20:12:03.299Z,101307.29
2019-01-18T20:15:17.872Z,101306.80
2019-01-18T20:18:09.753Z,101304.47
2019-01-18T20:21:11.835Z,101302.83
2019-01-18T20:24:30.922Z,101307.77
2019-01-18T20:27:42.899Z,101308.70
2019-01-18T20:30:44.858Z,101310.25
2019-01-18T20:34:00.498Z,101312.98
2019-01-18T20:36:55.260Z,101315.16
2019-01-18T20:40:10.155Z,101312.27
2019-01-18T20:43:09.227Z,101312.27
2019-01-18T20:46:41.457Z,101319.13
2019-01-18T20:49:41.001Z,101321.80
2019-01-18T20:53:04.846Z,101311.91
2019-01-18T20:56:08.397Z,101319.03
2019-01-18T20:59:12.019Z,101318.55
2019-01-18T21:02:16.998Z,101319.30
2019-01-18T21:05:16.491Z,101316.90
2019-01-18T21:07:54.777Z,101314.72
2019-01-18T21:11:03.642Z,101313.76
2019-01-18T21:13:43.777Z,101313.20
2019-01-18T21:17:05.015Z,101312.27
2019-01-18T21:20:09.620Z,101316.63
2019-01-18T21:23:23.305Z,101315.13
2019-01-18T21:26:37.577Z,101320.75
2019-01-18T21:29:42.078Z,101315.27
2019-01-18T21:32:29.153Z,101315.17
2019-01-18T21:35:16.464Z,101307.53
2019-01-18T21:38:18.077Z,101308.55
2019-01-18T21:41:29.222Z,101313.23
2019-01-18T21:44:45.998Z,101314.97
2019-01-18T21:47:36.532Z,101312.30
2019-01-18T21:50:47.791Z,101308.00
2019-01-18T21:53:50.831Z,101311.12
2019-01-18T21:56:48.892Z,101316.73
2019-01-18T21:59:44.534Z,101314.94
2019-01-18T22:02:59.120Z,101314.86
2019-01-18T22:05:58.022Z,101316.53
2019-01-18T22:09:08.936Z,101315.66
2019-01-18T22:12:14.954Z,101312.13
2019-01-18T22:15:09.144Z,101313.97
2019-01-18T22:17:59.771Z,101320.63
2019-01-18T22:20:58.664Z,101314.70
2019-01-18T22:23:36.987Z,101317.18
2019-01-18T22:26:25.145Z,101322.31
2019-01-18T22:29:49.398Z,101319.55
2019-01-18T22:33:07.304Z,101316.46
2019-01-18T22:36:21.935Z,101315.49
2019-01-18T22:39:10.257Z,101321.17
2019-01-18T22:42:02.901Z,101316.36
2019-01-18T22:45:19.209Z,101322.74
2019-01-18T22:48:23.591Z,101322.64
2019-01-18T22:51:50.578Z,101327.31
2019-01-18T22:54:36.542Z,101328.91
2019-01-18T22:57:14.467Z,101328.39
2019-01-18T23:00:44.198Z,101321.98
2019-01-18T23:04:08.440Z,101320.80
2019-01-18T23:06:49.659Z,101317.81
2019-01-18T23:10:11.217Z,101318.16
2019-01-18T23:13:05.049Z,101323.16
2019-01-18T23:16:31.874Z,101320.45
2019-01-18T23:19:24.942Z,101313.97
2019-01-18T23:22:28.979Z,101316.42
2019-01-18T23:25:34.963Z,101316.12
2019-01-18T23:28:45.371Z,101306.27
2019-01-18T23:31:44.171Z,101306.90
2019-01-18T23:34:24.623Z,101307.23
2019-01-18T23:37:14.402Z,101308.63
2019-01-18T23:40:16.758Z,101307.11
2019-01-18T23:43:19.542Z,101303.67
2019-01-18T23:46:30.223Z,101301.55
2019-01-18T23:49:09.257Z,101302.80
2019-01-18T23:52:14.148Z,101297.70
2019-01-18T23:54:58.059Z,101295.56
2019-01-18T23:57:51.288Z,101298.88
